Latest Weather Observations for Ivanhoe Airport

IDN60801

Issued at 10:34 pm EDT Wednesday 28 January 2015 (issued every 30 minutes, with the page automatically refreshed every 10 minutes)

About weather observations | Map of weather stations | Latest weather observations for NSW | Other Formats
Station Details ID: 049000 Name: IVANHOE AERODROME AWS Lat: -32.88 Lon: 144.31 Height: 100.0 m
Data from the previous 72 hours. | See also: Recent months at Ivanhoe Airport
Date/Time
EDT
Temp
°C
App
Temp
°C
Dew
Point
Rel
Hum
%
Delta-T
°C
Wind Press
QNH
hPa
Press
MSL
hPa
Rain
since 9 am
mm
Dir
 
Spd
km/h
Gust
km/h
Spd
kts
Gust
kts
28/10:30pm 26.6 24.3 10.3 36 9.2 ESE 13 19 7 10 1010.6 1010.0 0.0
28/09:30pm 27.9 23.9 10.6 34 9.8 ESE 22 30 12 16 1010.2 1009.6 0.0
28/09:00pm 28.4 24.5 9.6 31 10.5 SE 20 28 11 15 1009.7 1009.1 0.0
28/08:30pm 29.1 24.2 9.8 30 10.9 SE 26 39 14 21 1009.3 1008.7 0.0
28/08:00pm 30.2 25.3 8.6 26 12.0 SE 24 33 13 18 1009.0 1008.4 0.0
28/07:30pm 30.8 26.1 9.1 26 12.2 SSE 24 35 13 19 1008.7 1008.1 0.0
28/07:00pm 31.0 25.5 9.3 26 12.3 SSE 28 39 15 21 1008.4 1007.7 0.0
28/06:30pm 31.3 25.7 10.1 27 12.1 SE 30 39 16 21 1008.2 1007.5 0.0
28/06:00pm 31.5 26.3 10.2 27 12.2 SSE 28 41 15 22 1008.1 1007.4 0.0
28/05:30pm 32.2 28.4 9.7 25 12.8 SSE 20 32 11 17 1008.1 1007.4 0.0
28/05:13pm 32.1 27.0 10.7 27 12.4 SE 28 46 15 25 1008.2 1007.5 0.0
28/05:05pm 32.2 28.2 10.3 26 12.6 SSE 22 46 12 25 1008.2 1007.5 0.0
28/05:00pm 32.1 28.4 10.2 26 12.6 SSE 20 33 11 18 1008.2 1007.5 0.0
28/04:30pm 32.2 27.8 10.3 26 12.6 SSE 24 33 13 18 1008.3 1007.6 0.0
28/04:00pm 30.9 27.4 10.8 29 11.6 SE 20 35 11 19 1008.6 1008.0 0.0
28/03:30pm 31.8 27.6 11.0 28 12.1 SE 24 43 13 23 1008.8 1008.2 0.0
28/03:00pm 31.3 27.3 11.7 30 11.5 SE 24 37 13 20 1009.1 1008.5 0.0
28/02:30pm 31.3 28.1 13.1 33 10.9 SE 22 35 12 19 1009.4 1008.8 0.0
28/02:00pm 30.2 27.2 12.6 34 10.4 SSE 20 37 11 20 1009.7 1009.1 0.0
28/01:30pm 30.2 27.3 13.0 34 10.2 ESE 20 30 11 16 1010.0 1009.4 0.0
28/01:00pm 30.6 28.4 13.4 35 10.3 SE 17 30 9 16 1010.2 1009.6 0.0
28/12:30pm 28.4 25.6 12.7 38 9.2 SSE 19 33 10 18 1010.5 1009.9 0.0
28/12:00pm 28.1 26.3 13.2 39 8.8 SE 15 26 8 14 1010.6 1010.0 0.0
28/11:30am 27.7 26.0 13.6 42 8.4 SE 15 26 8 14 1010.8 1010.2 0.0
28/11:00am 26.6 24.3 14.0 46 7.5 SE 19 30 10 16 1010.9 1010.3 0.0
28/10:30am 26.2 24.0 14.3 48 7.1 E 19 28 10 15 1010.9 1010.3 0.0
28/10:00am 25.2 22.8 13.7 49 6.8 E 19 28 10 15 1010.9 1010.3 0.0
28/09:30am 23.5 21.1 12.8 51 6.2 SE 17 22 9 12 1011.0 1010.4 0.0
28/08:30am 20.1 16.4 10.2 53 5.4 SSE 20 28 11 15 1010.9 1010.3 0.0
28/08:00am 19.0 15.8 9.8 55 4.9 S 17 26 9 14 1010.8 1010.2 0.0
28/07:30am 17.8 14.8 9.2 57 4.5 S 15 22 8 12 1010.4 1009.8 0.0
28/07:00am 16.9 13.7 8.6 58 4.3 S 15 22 8 12 1010.1 1009.5 0.0
28/06:30am 16.6 12.6 8.3 58 4.2 S 19 26 10 14 1009.9 1009.3 0.0
28/06:00am 16.8 12.6 8.2 57 4.4 S 20 28 11 15 1009.6 1009.1 0.0
28/05:30am 17.0 12.7 7.9 55 4.6 S 20 30 11 16 1009.2 1008.6 0.0
28/05:00am 17.3 13.0 7.9 54 4.8 S 20 30 11 16 1009.1 1008.5 0.0
28/04:30am 17.8 12.4 7.8 52 5.1 S 26 37 14 20 1008.9 1008.3 0.0
28/04:00am 18.5 13.1 7.9 50 5.5 S 26 39 14 21 1008.7 1008.1 0.0
28/03:30am 19.1 14.1 8.1 49 5.7 S 24 37 13 20 1008.6 1008.0 0.0
28/03:00am 19.6 14.2 8.0 47 6.0 S 26 35 14 19 1008.8 1008.2 0.0
28/02:30am 20.4 14.5 7.4 43 6.7 S 28 41 15 22 1008.7 1008.1 0.0
28/02:00am 21.4 15.0 6.9 39 7.5 S 30 44 16 24 1008.8 1008.2 0.0
28/01:30am 21.9 16.3 7.0 38 7.7 S 26 43 14 23 1008.8 1008.2 0.0
28/01:00am 22.7 15.9 6.9 36 8.2 SSE 32 43 17 23 1008.9 1008.3 0.0
28/12:30am 22.9 17.4 5.8 33 8.7 S 24 35 13 19 1009.1 1008.5 0.0
28/12:00am 21.6 17.9 4.2 32 8.5 SSW 13 17 7 9 1009.0 1008.4 0.0
 
Date/Time
EDT
Temp
°C
App
Temp
°C
Dew
Point
Rel
Hum
%
Delta-T
°C
Wind Press
QNH
hPa
Press
MSL
hPa
Rain
since 9 am
mm
Dir
 
Spd
km/h
Gust
km/h
Spd
kts
Gust
kts
27/11:30pm 21.4 17.9 3.6 31 8.6 SW 11 13 6 7 1009.0 1008.4 0.0
27/11:00pm 21.5 17.9 3.2 30 8.8 SW 11 13 6 7 1009.0 1008.4 0.0
27/10:30pm 22.3 18.8 3.4 29 9.1 SW 11 15 6 8 1009.0 1008.4 0.0
27/10:00pm 22.9 19.4 3.4 28 9.5 SSW 11 13 6 7 1008.8 1008.2 0.0
27/09:30pm 24.1 20.6 3.4 26 10.1 S 11 13 6 7 1008.7 1008.1 0.0
27/09:00pm 25.3 21.0 3.3 24 10.9 S 15 20 8 11 1008.5 1007.9 0.0
27/08:30pm 25.6 21.3 3.5 24 10.9 S 15 20 8 11 1008.4 1007.7 0.0
27/08:00pm 26.4 21.2 3.6 23 11.4 S 20 30 11 16 1008.2 1007.5 0.0
27/07:30pm 27.2 21.4 4.3 23 11.6 S 24 35 13 19 1008.0 1007.3 0.0
27/07:00pm 27.5 21.6 3.9 22 11.9 S 24 33 13 18 1007.8 1007.1 0.0
27/06:30pm 27.8 22.3 4.2 22 12.0 S 22 35 12 19 1007.5 1006.8 0.0
27/06:00pm 28.4 22.6 4.6 22 12.3 S 24 41 13 22 1007.6 1006.9 0.0
27/05:30pm 28.1 22.4 5.0 23 11.9 S 24 39 13 21 1007.8 1007.1 0.0
27/05:00pm 27.7 21.7 3.4 21 12.2 SSW 24 37 13 20 1008.1 1007.4 0.0
27/04:30pm 27.3 21.1 2.4 20 12.2 SSW 24 41 13 22 1008.4 1007.7 0.0
27/04:00pm 27.5 20.8 3.9 22 11.9 SSW 28 41 15 22 1008.7 1008.1 0.0
27/03:30pm 26.9 20.9 3.4 22 11.7 SSW 24 37 13 20 1009.2 1008.6 0.0
27/03:15pm 26.4 20.3 3.0 22 11.5 SSW 24 44 13 24 1009.3 1008.7 0.0
27/03:00pm 26.2 20.2 3.4 23 11.3 SW 24 35 13 19 1009.5 1008.9 0.0
27/02:30pm 26.0 20.1 3.9 24 11.0 SSW 24 35 13 19 1009.9 1009.3 0.0
27/02:00pm 25.5 19.9 3.5 24 10.9 SW 22 35 12 19 1010.3 1009.7 0.0
27/01:30pm 25.4 19.8 3.4 24 10.9 SSW 22 39 12 21 1010.8 1010.2 0.0
27/01:00pm 24.7 19.6 3.9 26 10.3 SSW 20 32 11 17 1011.1 1010.5 0.0
27/12:30pm 25.3 20.5 4.4 26 10.5 S 19 32 10 17 1011.4 1010.8 0.0
27/12:00pm 24.2 18.4 4.6 28 9.8 SSE 24 37 13 20 1011.8 1011.2 0.0
27/11:30am 23.8 18.4 4.7 29 9.6 SSW 22 30 12 16 1012.2 1011.6 0.0
27/11:00am 22.6 16.8 4.6 31 8.9 S 24 32 13 17 1012.5 1011.9 0.0
27/10:30am 21.6 16.8 5.5 35 8.1 SSE 20 30 11 16 1012.6 1012.0 0.0
27/10:00am 20.2 15.7 6.2 40 7.0 S 19 28 10 15 1012.6 1012.0 0.0
27/09:30am 18.8 14.7 6.3 44 6.2 S 17 24 9 13 1012.7 1012.1 0.0
27/09:00am 17.5 12.9 6.4 48 5.5 SSW 20 28 11 15 1012.5 1011.9 0.0
27/08:30am 16.8 12.3 6.3 50 5.2 S 19 28 10 15 1012.5 1011.9 0.0
27/08:00am 15.6 10.9 6.1 53 4.6 S 20 30 11 16 1012.3 1011.7 0.0
27/07:30am 14.7 10.5 5.5 54 4.4 SSW 17 22 9 12 1012.1 1011.5 0.0
27/07:00am 14.6 10.7 5.4 54 4.4 S 15 22 8 12 1011.9 1011.3 0.0
27/06:30am 14.6 10.3 5.1 53 4.5 S 17 28 9 15 1011.5 1010.9 0.0
27/06:00am 14.6 10.1 4.3 50 4.8 S 17 22 9 12 1011.4 1010.8 0.0
27/05:30am 14.9 10.7 3.7 47 5.1 S 15 20 8 11 1011.1 1010.5 0.0
27/05:00am 15.4 10.7 3.2 44 5.6 S 17 22 9 12 1010.9 1010.3 0.0
27/04:30am 15.5 11.0 2.3 41 5.9 S 15 20 8 11 1010.9 1010.3 0.0
27/04:00am 16.2 12.1 2.2 39 6.3 S 13 17 7 9 1010.9 1010.3 0.0
27/03:30am 15.8 11.6 1.9 39 6.2 S 13 17 7 9 1011.0 1010.4 0.0
27/03:00am 16.1 12.3 1.8 38 6.4 SSW 11 13 6 7 1011.0 1010.4 0.0
27/02:30am 17.0 13.2 1.8 36 6.8 SSW 11 15 6 8 1011.2 1010.6 0.0
27/02:00am 17.5 13.7 1.9 35 7.1 SSW 11 13 6 7 1011.6 1011.0 0.0
27/01:30am 18.1 14.3 2.0 34 7.3 SSW 11 13 6 7 1011.8 1011.2 0.0
27/01:00am 18.8 14.6 1.8 32 7.8 SSW 13 17 7 9 1011.9 1011.3 0.0
27/12:30am 19.2 15.1 2.1 32 7.9 SSW 13 19 7 10 1012.0 1011.4 0.0
27/12:00am 19.5 15.4 2.4 32 7.9 SSW 13 15 7 8 1012.0 1011.4 0.0
 
Date/Time
EDT
Temp
°C
App
Temp
°C
Dew
Point
Rel
Hum
%
Delta-T
°C
Wind Press
QNH
hPa
Press
MSL
hPa
Rain
since 9 am
mm
Dir
 
Spd
km/h
Gust
km/h
Spd
kts
Gust
kts
26/11:30pm 20.1 16.0 2.5 31 8.2 SSW 13 17 7 9 1012.0 1011.4 0.0
26/11:00pm 20.4 16.4 2.7 31 8.3 SSW 13 15 7 8 1012.2 1011.6 0.0
26/10:30pm 20.7 17.1 3.0 31 8.4 S 11 15 6 8 1012.2 1011.6 0.0
26/10:00pm 21.3 18.0 2.6 29 8.8 S 9 13 5 7 1012.1 1011.5 0.0
26/09:30pm 22.1 18.4 2.2 27 9.4 SSW 11 13 6 7 1011.8 1011.2 0.0
26/09:00pm 23.2 18.7 2.1 25 10.0 SSW 15 20 8 11 1011.4 1010.8 0.0
26/08:30pm 23.8 19.2 1.4 23 10.5 SSW 15 24 8 13 1011.1 1010.5 0.0
26/08:00pm 24.8 19.3 1.7 22 11.0 SSW 20 30 11 16 1010.8 1010.2 0.0
26/07:30pm 25.5 19.9 0.9 20 11.6 S 20 28 11 15 1010.7 1010.1 0.0
26/07:00pm 26.2 20.3 1.5 20 11.9 SSW 22 33 12 18 1010.3 1009.7 0.0
26/06:30pm 26.3 20.8 1.6 20 11.9 S 20 33 11 18 1010.2 1009.6 0.0
26/06:00pm 26.7 20.8 1.9 20 12.0 SSW 22 32 12 17 1010.3 1009.7 0.0
26/05:30pm 27.1 21.7 1.5 19 12.4 S 19 30 10 16 1010.5 1009.9 0.0
26/05:00pm 26.7 21.3 1.2 19 12.2 SSW 19 30 10 16 1010.7 1010.1 0.0
26/04:30pm 26.8 21.6 2.7 21 11.9 S 19 30 10 16 1010.9 1010.3 0.0
26/04:00pm 26.3 20.8 0.9 19 12.1 SSW 19 30 10 16 1011.2 1010.6 0.0
26/03:30pm 26.3 20.5 2.3 21 11.7 SSE 22 32 12 17 1011.3 1010.7 0.0
26/03:00pm 26.0 21.0 1.3 20 11.8 SSW 17 28 9 15 1011.6 1011.0 0.0
26/02:30pm 26.1 20.9 2.7 22 11.5 SSW 19 35 10 19 1011.9 1011.3 0.0
26/02:00pm 26.1 21.1 3.4 23 11.3 SSW 19 35 10 19 1012.4 1011.8 0.0
26/01:30pm 24.8 20.2 3.5 25 10.5 SSW 17 30 9 16 1013.1 1012.5 0.0
26/01:00pm 24.2 19.2 3.5 26 10.1 SSW 19 35 10 19 1013.5 1012.9 0.0
26/12:30pm 23.7 18.4 3.1 26 10.0 SSW 20 32 11 17 1013.7 1013.1 0.0
26/12:00pm 23.1 18.1 3.6 28 9.5 S 19 39 10 21 1013.8 1013.2 0.0
26/11:30am 22.5 17.4 4.1 30 9.0 S 20 33 11 18 1014.0 1013.4 0.0
26/11:00am 22.4 17.5 4.9 32 8.7 SSE 20 30 11 16 1014.1 1013.5 0.0
26/10:30am 21.4 16.5 4.9 34 8.1 SSE 20 28 11 15 1014.3 1013.7 0.0
26/10:00am 20.7 15.7 4.7 35 7.8 SSE 20 30 11 16 1014.6 1014.0 0.0
26/09:30am 19.8 14.4 4.7 37 7.3 SSE 22 32 12 17 1014.5 1013.9 0.0
26/09:00am 18.6 12.6 5.1 41 6.6 SSE 26 35 14 19 1014.3 1013.7 0.0
26/08:30am 17.4 12.0 4.7 43 6.1 S 22 32 12 17 1014.1 1013.5 0.0
26/08:00am 16.9 11.5 4.6 44 5.8 S 22 33 12 18 1013.9 1013.3 0.0
26/07:30am 16.1 11.6 4.2 45 5.6 S 17 28 9 15 1013.5 1012.9 0.0
26/07:00am 15.4 11.2 3.9 46 5.3 SSW 15 26 8 14 1013.1 1012.5 0.0
26/06:30am 15.3 10.7 3.8 46 5.3 SSW 17 24 9 13 1012.8 1012.2 0.0
26/06:00am 15.8 11.2 3.6 44 5.6 SSW 17 24 9 13 1012.4 1011.8 0.0
26/05:30am 16.2 11.2 3.6 43 5.8 SSW 19 26 10 14 1011.9 1011.3 0.0
26/05:00am 16.6 11.9 3.3 41 6.1 SSW 17 28 9 15 1011.8 1011.2 0.0
26/04:30am 17.1 12.1 3.4 40 6.4 SSW 19 26 10 14 1011.5 1010.9 0.0
26/04:00am 17.3 12.2 3.2 39 6.5 SSW 19 26 10 14 1011.5 1010.9 0.0
26/03:30am 17.9 13.2 3.0 37 6.9 SSW 17 24 9 13 1011.5 1010.9 0.0
26/03:00am 18.4 14.0 2.7 35 7.3 S 15 22 8 12 1011.2 1010.6 0.0
26/02:30am 19.2 13.7 2.1 32 7.9 S 20 28 11 15 1011.1 1010.5 0.0
26/02:00am 19.4 14.1 1.9 31 8.0 S 19 28 10 15 1011.0 1010.4 0.0
26/01:30am 19.6 14.3 2.0 31 8.1 S 19 26 10 14 1010.9 1010.3 0.0
26/01:00am 20.4 15.2 2.3 30 8.4 S 19 28 10 15 1010.9 1010.3 0.0
26/12:30am 21.0 15.7 1.8 28 8.9 S 19 28 10 15 1010.9 1010.3 0.0
26/12:00am 21.0 16.5 2.3 29 8.8 S 15 22 8 12 1010.9 1010.3 0.0
 
Date/Time
EDT
Temp
°C
App
Temp
°C
Dew
Point
Rel
Hum
%
Delta-T
°C
Wind Press
QNH
hPa
Press
MSL
hPa
Rain
since 9 am
mm
Dir
 
Spd
km/h
Gust
km/h
Spd
kts
Gust
kts
25/11:30pm 21.4 17.4 2.6 29 8.9 S 13 17 7 9 1010.7 1010.1 0.0
25/11:00pm 21.6 17.9 2.3 28 9.1 S 11 17 6 9 1010.6 1010.0 0.0

Other Formats:

Comma delimited format used in spreadsheet applications
http://www.bom.gov.au/fwo/IDN60801/IDN60801.95697.axf

JavaScript Object Notation format (JSON) in row-major order
http://www.bom.gov.au/fwo/IDN60801/IDN60801.95697.json